Terminal Aerodrome Forecast
Issued by NWS Sterling, VA

Current Version | Previous Version | Graphics & Text | Print | Product List | Glossary On
Versions: 1 2 3 4 5 6 7 8 9 10 11 12 13 14 15 16 17 18 19 20 21 22 23 24 25 26
000
FTUS41 KLWX 020900 AAA
TAFIAD
TAF AMD
KIAD 020902Z 0209/0312 32003KT 4SM BR FEW030 BKN080
      TEMPO 0209/0211 3SM BR SCT002 BKN030
     FM021200 VRB03KT P6SM SCT010 SCT040
     FM021800 VRB03KT P6SM SCT050 SCT250
     FM030600 14004KT P6SM SCT008 SCT035=

USA.gov is the U.S. government's official web portal to all federal, state and local government web resources and services.